Terminal Aerodrome Forecast
Issued by NWS Shreveport, LA

Home | Current Version | Previous Version | Text Only | Print | Product List | Glossary On
Versions: 1 2 3 4 5 6 7 8 9 10 11 12 13
000
FTUS44 KSHV 291121
TAFSHV
TAF
KSHV 291121Z 2912/3012 VRB06KT P6SM VCSH OVC080
      TEMPO 2912/2916 5SM -SHRA BR BKN015
     FM291600 VRB06KT P6SM BKN035
     FM291900 03007KT P6SM BKN040
     FM300100 06006KT P6SM SCT050 SCT250
     FM300800 06007KT P6SM SCT250=

USA.gov is the U.S. government's official web portal to all federal, state and local government web resources and services.